sensor_id;sensor_type;location;lat;lon;timestamp;temperature;humidity
75380;HTU21D;65641;44.714;37.756;2022-12-07T00:00:13;7.97;80.27
75380;HTU21D;65641;44.714;37.756;2022-12-07T00:01:27;7.97;80.27
75380;HTU21D;65641;44.714;37.756;2022-12-07T00:02:31;7.99;80.21
75380;HTU21D;65641;44.714;37.756;2022-12-07T00:03:36;8.00;80.27
75380;HTU21D;65641;44.714;37.756;2022-12-07T00:04:40;7.97;80.27
75380;HTU21D;65641;44.714;37.756;2022-12-07T00:05:43;7.98;80.30
75380;HTU21D;65641;44.714;37.756;2022-12-07T00:06:52;7.98;80.33
75380;HTU21D;65641;44.714;37.756;2022-12-07T00:07:55;7.97;80.34
75380;HTU21D;65641;44.714;37.756;2022-12-07T00:08:59;7.97;80.45
75380;HTU21D;65641;44.714;37.756;2022-12-07T00:10:02;7.94;80.46
75380;HTU21D;65641;44.714;37.756;2022-12-07T00:11:08;7.96;80.49
75380;HTU21D;65641;44.714;37.756;2022-12-07T00:12:11;7.92;80.52
75380;HTU21D;65641;44.714;37.756;2022-12-07T00:13:14;7.93;80.57
75380;HTU21D;65641;44.714;37.756;2022-12-07T00:14:18;7.92;80.58
75380;HTU21D;65641;44.714;37.756;2022-12-07T00:15:26;7.90;80.61
75380;HTU21D;65641;44.714;37.756;2022-12-07T00:16:38;7.91;80.59
75380;HTU21D;65641;44.714;37.756;2022-12-07T00:17:46;7.90;80.60
75380;HTU21D;65641;44.714;37.756;2022-12-07T00:18:49;7.89;80.64
75380;HTU21D;65641;44.714;37.756;2022-12-07T00:20:00;7.88;80.65
75380;HTU21D;65641;44.714;37.756;2022-12-07T00:21:57;7.88;80.66
75380;HTU21D;65641;44.714;37.756;2022-12-07T00:23:04;7.86;80.66
75380;HTU21D;65641;44.714;37.756;2022-12-07T00:24:23;7.85;80.70
75380;HTU21D;65641;44.714;37.756;2022-12-07T00:25:52;7.83;80.71
75380;HTU21D;65641;44.714;37.756;2022-12-07T00:26:56;7.83;80.75
75380;HTU21D;65641;44.714;37.756;2022-12-07T00:28:03;7.83;80.75
75380;HTU21D;65641;44.714;37.756;2022-12-07T00:29:25;7.79;80.75
75380;HTU21D;65641;44.714;37.756;2022-12-07T00:30:52;7.81;80.79
75380;HTU21D;65641;44.714;37.756;2022-12-07T00:32:02;7.77;80.88
75380;HTU21D;65641;44.714;37.756;2022-12-07T00:33:05;7.77;80.91
75380;HTU21D;65641;44.714;37.756;2022-12-07T00:34:18;7.78;80.92
75380;HTU21D;65641;44.714;37.756;2022-12-07T00:35:21;7.76;80.90
75380;HTU21D;65641;44.714;37.756;2022-12-07T00:36:25;7.76;80.94
75380;HTU21D;65641;44.714;37.756;2022-12-07T00:37:28;7.75;80.96
75380;HTU21D;65641;44.714;37.756;2022-12-07T00:38:33;7.74;81.07
75380;HTU21D;65641;44.714;37.756;2022-12-07T00:39:36;7.73;81.05
75380;HTU21D;65641;44.714;37.756;2022-12-07T00:40:39;7.74;81.10
75380;HTU21D;65641;44.714;37.756;2022-12-07T00:41:42;7.72;81.14
75380;HTU21D;65641;44.714;37.756;2022-12-07T00:42:45;7.71;81.20
75380;HTU21D;65641;44.714;37.756;2022-12-07T00:43:50;7.71;81.25
75380;HTU21D;65641;44.714;37.756;2022-12-07T00:44:53;7.70;81.28
75380;HTU21D;65641;44.714;37.756;2022-12-07T00:45:57;7.69;81.32
75380;HTU21D;65641;44.714;37.756;2022-12-07T00:47:00;7.69;81.38
75380;HTU21D;65641;44.714;37.756;2022-12-07T00:48:03;7.70;81.33
75380;HTU21D;65641;44.714;37.756;2022-12-07T00:49:06;7.70;81.33
75380;HTU21D;65641;44.714;37.756;2022-12-07T00:50:09;7.69;81.40
75380;HTU21D;65641;44.714;37.756;2022-12-07T00:51:15;7.70;81.34
75380;HTU21D;65641;44.714;37.756;2022-12-07T00:52:18;7.69;81.36
75380;HTU21D;65641;44.714;37.756;2022-12-07T00:53:21;7.69;81.39
75380;HTU21D;65641;44.714;37.756;2022-12-07T00:54:25;7.70;81.37
75380;HTU21D;65641;44.714;37.756;2022-12-07T00:55:28;7.69;81.39
75380;HTU21D;65641;44.714;37.756;2022-12-07T00:56:32;7.70;81.43
75380;HTU21D;65641;44.714;37.756;2022-12-07T00:57:35;7.70;81.37
75380;HTU21D;65641;44.714;37.756;2022-12-07T00:58:38;7.71;81.37
75380;HTU21D;65641;44.714;37.756;2022-12-07T00:59:41;7.70;81.41
75380;HTU21D;65641;44.714;37.756;2022-12-07T01:00:44;7.70;81.47
75380;HTU21D;65641;44.714;37.756;2022-12-07T01:01:48;7.71;81.42
75380;HTU21D;65641;44.714;37.756;2022-12-07T01:02:52;7.70;81.39
75380;HTU21D;65641;44.714;37.756;2022-12-07T01:03:55;7.71;81.47
75380;HTU21D;65641;44.714;37.756;2022-12-07T01:04:58;7.71;81.44
75380;HTU21D;65641;44.714;37.756;2022-12-07T01:06:23;7.71;81.41
75380;HTU21D;65641;44.714;37.756;2022-12-07T01:07:26;7.71;81.41
75380;HTU21D;65641;44.714;37.756;2022-12-07T01:08:32;7.71;81.46
75380;HTU21D;65641;44.714;37.756;2022-12-07T01:09:35;7.71;81.40
75380;HTU21D;65641;44.714;37.756;2022-12-07T01:10:38;7.72;81.43
75380;HTU21D;65641;44.714;37.756;2022-12-07T01:11:42;7.72;81.43
75380;HTU21D;65641;44.714;37.756;2022-12-07T01:12:45;7.72;81.46
75380;HTU21D;65641;44.714;37.756;2022-12-07T01:13:51;7.71;81.46
75380;HTU21D;65641;44.714;37.756;2022-12-07T01:14:56;7.72;81.49
75380;HTU21D;65641;44.714;37.756;2022-12-07T01:16:03;7.71;81.52
75380;HTU21D;65641;44.714;37.756;2022-12-07T01:17:07;7.73;81.49
75380;HTU21D;65641;44.714;37.756;2022-12-07T01:18:11;7.73;81.52
75380;HTU21D;65641;44.714;37.756;2022-12-07T01:19:14;7.72;81.50
75380;HTU21D;65641;44.714;37.756;2022-12-07T01:20:17;7.72;81.50
75380;HTU21D;65641;44.714;37.756;2022-12-07T01:21:27;7.74;81.49
75380;HTU21D;65641;44.714;37.756;2022-12-07T01:22:30;7.73;81.52
75380;HTU21D;65641;44.714;37.756;2022-12-07T01:23:34;7.72;81.55
75380;HTU21D;65641;44.714;37.756;2022-12-07T01:24:38;7.72;81.55
75380;HTU21D;65641;44.714;37.756;2022-12-07T01:25:41;7.73;81.55
75380;HTU21D;65641;44.714;37.756;2022-12-07T01:26:43;7.74;81.55
75380;HTU21D;65641;44.714;37.756;2022-12-07T01:27:46;7.72;81.57
75380;HTU21D;65641;44.714;37.756;2022-12-07T01:28:50;7.73;81.62
75380;HTU21D;65641;44.714;37.756;2022-12-07T01:29:53;7.72;81.58
75380;HTU21D;65641;44.714;37.756;2022-12-07T01:31:05;7.73;81.62
75380;HTU21D;65641;44.714;37.756;2022-12-07T01:32:11;7.73;81.61
75380;HTU21D;65641;44.714;37.756;2022-12-07T01:33:14;7.72;81.58
75380;HTU21D;65641;44.714;37.756;2022-12-07T01:34:17;7.73;81.62
75380;HTU21D;65641;44.714;37.756;2022-12-07T01:35:20;7.73;81.62
75380;HTU21D;65641;44.714;37.756;2022-12-07T01:37:26;7.75;81.65
75380;HTU21D;65641;44.714;37.756;2022-12-07T01:38:30;7.74;81.62
75380;HTU21D;65641;44.714;37.756;2022-12-07T01:39:33;7.74;81.62
75380;HTU21D;65641;44.714;37.756;2022-12-07T01:40:36;7.74;81.59
75380;HTU21D;65641;44.714;37.756;2022-12-07T01:41:40;7.74;81.64
75380;HTU21D;65641;44.714;37.756;2022-12-07T01:42:46;7.73;81.65
75380;HTU21D;65641;44.714;37.756;2022-12-07T01:45:41;7.74;81.75
75380;HTU21D;65641;44.714;37.756;2022-12-07T01:46:46;7.74;81.77
75380;HTU21D;65641;44.714;37.756;2022-12-07T01:47:53;7.75;81.75
75380;HTU21D;65641;44.714;37.756;2022-12-07T01:48:58;7.76;81.80
75380;HTU21D;65641;44.714;37.756;2022-12-07T01:50:02;7.78;81.78
75380;HTU21D;65641;44.714;37.756;2022-12-07T01:51:15;7.79;81.73
75380;HTU21D;65641;44.714;37.756;2022-12-07T01:52:28;7.83;81.68
75380;HTU21D;65641;44.714;37.756;2022-12-07T01:53:34;7.85;81.67
75380;HTU21D;65641;44.714;37.756;2022-12-07T01:54:39;7.86;81.70
75380;HTU21D;65641;44.714;37.756;2022-12-07T01:55:44;7.87;81.68
75380;HTU21D;65641;44.714;37.756;2022-12-07T01:56:53;7.89;81.65
75380;HTU21D;65641;44.714;37.756;2022-12-07T01:57:57;7.91;81.65
75380;HTU21D;65641;44.714;37.756;2022-12-07T01:59:02;7.93;81.65
75380;HTU21D;65641;44.714;37.756;2022-12-07T02:00:07;7.94;81.60
75380;HTU21D;65641;44.714;37.756;2022-12-07T02:01:15;7.97;81.59
75380;HTU21D;65641;44.714;37.756;2022-12-07T02:02:27;7.99;81.58
75380;HTU21D;65641;44.714;37.756;2022-12-07T02:03:42;8.00;81.45
75380;HTU21D;65641;44.714;37.756;2022-12-07T02:04:46;8.00;81.45
75380;HTU21D;65641;44.714;37.756;2022-12-07T02:05:50;8.01;81.45
75380;HTU21D;65641;44.714;37.756;2022-12-07T02:06:54;8.02;81.41
75380;HTU21D;65641;44.714;37.756;2022-12-07T02:07:58;8.03;81.43
75380;HTU21D;65641;44.714;37.756;2022-12-07T02:09:02;8.03;81.40
75380;HTU21D;65641;44.714;37.756;2022-12-07T02:10:16;8.03;81.40
75380;HTU21D;65641;44.714;37.756;2022-12-07T02:11:20;8.04;81.40
75380;HTU21D;65641;44.714;37.756;2022-12-07T02:12:24;8.04;81.43
75380;HTU21D;65641;44.714;37.756;2022-12-07T02:13:48;8.03;81.35
75380;HTU21D;65641;44.714;37.756;2022-12-07T02:14:52;8.04;81.46
75380;HTU21D;65641;44.714;37.756;2022-12-07T02:18:02;8.04;81.46
75380;HTU21D;65641;44.714;37.756;2022-12-07T02:19:46;8.04;81.51
75380;HTU21D;65641;44.714;37.756;2022-12-07T02:22:45;8.05;81.57
75380;HTU21D;65641;44.714;37.756;2022-12-07T02:28:12;8.07;81.57
75380;HTU21D;65641;44.714;37.756;2022-12-07T02:29:21;8.09;81.54
75380;HTU21D;65641;44.714;37.756;2022-12-07T02:30:28;8.11;81.56
75380;HTU21D;65641;44.714;37.756;2022-12-07T02:31:34;8.09;81.54
75380;HTU21D;65641;44.714;37.756;2022-12-07T02:34:13;8.12;81.50
75380;HTU21D;65641;44.714;37.756;2022-12-07T02:35:40;8.13;81.55
75380;HTU21D;65641;44.714;37.756;2022-12-07T02:36:57;8.14;81.53
75380;HTU21D;65641;44.714;37.756;2022-12-07T02:39:34;8.15;81.52
75380;HTU21D;65641;44.714;37.756;2022-12-07T02:40:44;8.15;81.51
75380;HTU21D;65641;44.714;37.756;2022-12-07T02:41:57;8.15;81.50
75380;HTU21D;65641;44.714;37.756;2022-12-07T02:43:30;8.15;81.50
75380;HTU21D;65641;44.714;37.756;2022-12-07T02:44:31;8.16;81.46
75380;HTU21D;65641;44.714;37.756;2022-12-07T02:45:38;8.15;81.50
75380;HTU21D;65641;44.714;37.756;2022-12-07T02:46:46;8.15;81.53
75380;HTU21D;65641;44.714;37.756;2022-12-07T02:47:50;8.16;81.56
75380;HTU21D;65641;44.714;37.756;2022-12-07T02:48:55;8.16;81.58
75380;HTU21D;65641;44.714;37.756;2022-12-07T02:49:58;8.15;81.55
75380;HTU21D;65641;44.714;37.756;2022-12-07T02:51:02;8.16;81.52
75380;HTU21D;65641;44.714;37.756;2022-12-07T02:52:05;8.16;81.62
75380;HTU21D;65641;44.714;37.756;2022-12-07T02:53:29;8.15;81.69
75380;HTU21D;65641;44.714;37.756;2022-12-07T02:54:33;8.17;81.67
75380;HTU21D;65641;44.714;37.756;2022-12-07T02:55:41;8.16;81.64
75380;HTU21D;65641;44.714;37.756;2022-12-07T03:00:24;8.19;81.72
75380;HTU21D;65641;44.714;37.756;2022-12-07T03:04:32;8.19;81.70
75380;HTU21D;65641;44.714;37.756;2022-12-07T03:05:59;8.22;81.71
75380;HTU21D;65641;44.714;37.756;2022-12-07T03:09:42;8.26;81.71
75380;HTU21D;65641;44.714;37.756;2022-12-07T03:11:08;8.28;81.70
75380;HTU21D;65641;44.714;37.756;2022-12-07T03:12:27;8.30;81.65
75380;HTU21D;65641;44.714;37.756;2022-12-07T03:13:54;8.31;81.68
75380;HTU21D;65641;44.714;37.756;2022-12-07T03:15:14;8.32;81.65
75380;HTU21D;65641;44.714;37.756;2022-12-07T03:17:30;8.35;81.61
75380;HTU21D;65641;44.714;37.756;2022-12-07T03:18:39;8.36;81.62
75380;HTU21D;65641;44.714;37.756;2022-12-07T03:19:43;8.36;81.61
75380;HTU21D;65641;44.714;37.756;2022-12-07T03:20:48;8.38;81.61
75380;HTU21D;65641;44.714;37.756;2022-12-07T03:21:57;8.41;81.63
75380;HTU21D;65641;44.714;37.756;2022-12-07T03:23:05;8.41;81.65
75380;HTU21D;65641;44.714;37.756;2022-12-07T03:24:58;8.43;81.54
75380;HTU21D;65641;44.714;37.756;2022-12-07T03:26:02;8.44;81.59
75380;HTU21D;65641;44.714;37.756;2022-12-07T03:27:19;8.46;81.54
75380;HTU21D;65641;44.714;37.756;2022-12-07T03:28:27;8.48;81.51
75380;HTU21D;65641;44.714;37.756;2022-12-07T03:29:40;8.49;81.53
75380;HTU21D;65641;44.714;37.756;2022-12-07T03:30:49;8.50;81.53
75380;HTU21D;65641;44.714;37.756;2022-12-07T03:31:59;8.52;81.50
75380;HTU21D;65641;44.714;37.756;2022-12-07T03:35:33;8.57;81.47
75380;HTU21D;65641;44.714;37.756;2022-12-07T03:37:45;8.60;81.44
75380;HTU21D;65641;44.714;37.756;2022-12-07T03:38:55;8.59;81.37
75380;HTU21D;65641;44.714;37.756;2022-12-07T03:40:17;8.61;81.37
75380;HTU21D;65641;44.714;37.756;2022-12-07T03:41:25;8.62;81.38
75380;HTU21D;65641;44.714;37.756;2022-12-07T03:42:31;8.64;81.37
75380;HTU21D;65641;44.714;37.756;2022-12-07T03:43:35;8.64;81.36
75380;HTU21D;65641;44.714;37.756;2022-12-07T03:44:40;8.65;81.31
75380;HTU21D;65641;44.714;37.756;2022-12-07T03:48:26;8.67;81.30
75380;HTU21D;65641;44.714;37.756;2022-12-07T03:49:41;8.70;81.30
75380;HTU21D;65641;44.714;37.756;2022-12-07T03:51:21;8.71;81.30
75380;HTU21D;65641;44.714;37.756;2022-12-07T03:52:36;8.72;81.28
75380;HTU21D;65641;44.714;37.756;2022-12-07T03:53:46;8.73;81.27
75380;HTU21D;65641;44.714;37.756;2022-12-07T03:56:09;8.73;81.33
75380;HTU21D;65641;44.714;37.756;2022-12-07T03:57:14;8.74;81.34
75380;HTU21D;65641;44.714;37.756;2022-12-07T03:58:29;8.74;81.33
75380;HTU21D;65641;44.714;37.756;2022-12-07T03:59:33;8.75;81.32
75380;HTU21D;65641;44.714;37.756;2022-12-07T04:00:37;8.77;81.33
75380;HTU21D;65641;44.714;37.756;2022-12-07T04:01:44;8.77;81.33
75380;HTU21D;65641;44.714;37.756;2022-12-07T04:02:47;8.77;81.32
75380;HTU21D;65641;44.714;37.756;2022-12-07T04:03:54;8.77;81.38
75380;HTU21D;65641;44.714;37.756;2022-12-07T04:04:57;8.78;81.27
75380;HTU21D;65641;44.714;37.756;2022-12-07T04:06:01;8.78;81.33
75380;HTU21D;65641;44.714;37.756;2022-12-07T04:07:04;8.79;81.37
75380;HTU21D;65641;44.714;37.756;2022-12-07T04:08:07;8.80;81.33
75380;HTU21D;65641;44.714;37.756;2022-12-07T04:09:10;8.81;81.36
75380;HTU21D;65641;44.714;37.756;2022-12-07T04:10:22;8.81;81.35
75380;HTU21D;65641;44.714;37.756;2022-12-07T04:11:25;8.82;81.34
75380;HTU21D;65641;44.714;37.756;2022-12-07T04:12:28;8.82;81.32
75380;HTU21D;65641;44.714;37.756;2022-12-07T04:13:31;8.85;81.36
75380;HTU21D;65641;44.714;37.756;2022-12-07T04:14:54;8.83;81.43
75380;HTU21D;65641;44.714;37.756;2022-12-07T04:15:59;8.85;81.39
75380;HTU21D;65641;44.714;37.756;2022-12-07T04:17:02;8.85;81.44
75380;HTU21D;65641;44.714;37.756;2022-12-07T04:18:06;8.86;81.53
75380;HTU21D;65641;44.714;37.756;2022-12-07T04:19:09;8.85;81.51
75380;HTU21D;65641;44.714;37.756;2022-12-07T04:20:12;8.86;81.52
75380;HTU21D;65641;44.714;37.756;2022-12-07T04:21:15;8.87;81.50
75380;HTU21D;65641;44.714;37.756;2022-12-07T04:22:18;8.88;81.62
75380;HTU21D;65641;44.714;37.756;2022-12-07T04:23:21;8.88;81.62
75380;HTU21D;65641;44.714;37.756;2022-12-07T04:24:25;8.88;81.59
75380;HTU21D;65641;44.714;37.756;2022-12-07T04:25:30;8.89;81.59
75380;HTU21D;65641;44.714;37.756;2022-12-07T04:26:33;8.89;81.63
75380;HTU21D;65641;44.714;37.756;2022-12-07T04:27:36;8.89;81.62
75380;HTU21D;65641;44.714;37.756;2022-12-07T04:28:39;8.92;81.67
75380;HTU21D;65641;44.714;37.756;2022-12-07T04:29:48;8.91;81.68
75380;HTU21D;65641;44.714;37.756;2022-12-07T04:30:51;8.91;81.70
75380;HTU21D;65641;44.714;37.756;2022-12-07T04:31:54;8.93;81.66
75380;HTU21D;65641;44.714;37.756;2022-12-07T04:33:00;8.93;81.65
75380;HTU21D;65641;44.714;37.756;2022-12-07T04:34:04;8.94;81.69
75380;HTU21D;65641;44.714;37.756;2022-12-07T04:35:09;8.95;81.67
75380;HTU21D;65641;44.714;37.756;2022-12-07T04:36:12;8.96;81.70
75380;HTU21D;65641;44.714;37.756;2022-12-07T04:37:15;8.95;81.72
75380;HTU21D;65641;44.714;37.756;2022-12-07T04:38:20;8.95;81.68
75380;HTU21D;65641;44.714;37.756;2022-12-07T04:39:26;8.94;81.78
75380;HTU21D;65641;44.714;37.756;2022-12-07T04:40:29;8.95;81.76
75380;HTU21D;65641;44.714;37.756;2022-12-07T04:41:32;8.94;81.75
75380;HTU21D;65641;44.714;37.756;2022-12-07T04:42:35;8.95;81.77
75380;HTU21D;65641;44.714;37.756;2022-12-07T04:43:38;8.95;81.80
75380;HTU21D;65641;44.714;37.756;2022-12-07T04:44:41;8.95;81.75
75380;HTU21D;65641;44.714;37.756;2022-12-07T04:45:59;8.95;81.84
75380;HTU21D;65641;44.714;37.756;2022-12-07T04:47:02;8.96;81.81
75380;HTU21D;65641;44.714;37.756;2022-12-07T04:48:05;8.96;81.80
75380;HTU21D;65641;44.714;37.756;2022-12-07T04:49:09;8.96;81.82
75380;HTU21D;65641;44.714;37.756;2022-12-07T04:50:12;8.97;81.81
75380;HTU21D;65641;44.714;37.756;2022-12-07T04:51:19;8.98;81.75
75380;HTU21D;65641;44.714;37.756;2022-12-07T04:52:23;8.98;81.85
75380;HTU21D;65641;44.714;37.756;2022-12-07T04:53:25;8.98;81.88
75380;HTU21D;65641;44.714;37.756;2022-12-07T04:54:28;8.98;81.90
75380;HTU21D;65641;44.714;37.756;2022-12-07T04:55:31;8.97;81.91
75380;HTU21D;65641;44.714;37.756;2022-12-07T04:56:35;8.98;81.89
75380;HTU21D;65641;44.714;37.756;2022-12-07T04:57:38;9.00;81.96
75380;HTU21D;65641;44.714;37.756;2022-12-07T04:58:42;9.01;81.89
75380;HTU21D;65641;44.714;37.756;2022-12-07T04:59:46;9.01;81.92
75380;HTU21D;65641;44.714;37.756;2022-12-07T05:00:49;9.01;81.91
75380;HTU21D;65641;44.714;37.756;2022-12-07T05:01:52;9.02;81.88
75380;HTU21D;65641;44.714;37.756;2022-12-07T05:02:55;9.04;81.90
75380;HTU21D;65641;44.714;37.756;2022-12-07T05:03:58;9.04;81.96
75380;HTU21D;65641;44.714;37.756;2022-12-07T05:05:01;9.05;81.88
75380;HTU21D;65641;44.714;37.756;2022-12-07T05:06:05;9.05;81.88
75380;HTU21D;65641;44.714;37.756;2022-12-07T05:07:14;9.07;81.81
75380;HTU21D;65641;44.714;37.756;2022-12-07T05:08:17;9.09;81.82
75380;HTU21D;65641;44.714;37.756;2022-12-07T05:09:20;9.09;81.80
75380;HTU21D;65641;44.714;37.756;2022-12-07T05:10:23;9.10;81.79
75380;HTU21D;65641;44.714;37.756;2022-12-07T05:11:26;9.11;81.77
75380;HTU21D;65641;44.714;37.756;2022-12-07T05:12:42;9.15;81.80
75380;HTU21D;65641;44.714;37.756;2022-12-07T05:13:45;9.16;81.72
75380;HTU21D;65641;44.714;37.756;2022-12-07T05:14:48;9.18;81.70
75380;HTU21D;65641;44.714;37.756;2022-12-07T05:15:51;9.21;81.65
75380;HTU21D;65641;44.714;37.756;2022-12-07T05:16:54;9.21;81.62
75380;HTU21D;65641;44.714;37.756;2022-12-07T05:17:57;9.25;81.49
75380;HTU21D;65641;44.714;37.756;2022-12-07T05:19:00;9.27;81.44
75380;HTU21D;65641;44.714;37.756;2022-12-07T05:20:04;9.30;81.39
75380;HTU21D;65641;44.714;37.756;2022-12-07T05:21:07;9.32;81.29
75380;HTU21D;65641;44.714;37.756;2022-12-07T05:22:10;9.33;81.30
75380;HTU21D;65641;44.714;37.756;2022-12-07T05:23:13;9.35;81.24
75380;HTU21D;65641;44.714;37.756;2022-12-07T05:24:16;9.37;81.20
75380;HTU21D;65641;44.714;37.756;2022-12-07T05:25:19;9.39;81.13
75380;HTU21D;65641;44.714;37.756;2022-12-07T05:26:22;9.41;81.07
75380;HTU21D;65641;44.714;37.756;2022-12-07T05:27:27;9.42;81.08
75380;HTU21D;65641;44.714;37.756;2022-12-07T05:28:30;9.42;81.04
75380;HTU21D;65641;44.714;37.756;2022-12-07T05:29:33;9.46;80.98
75380;HTU21D;65641;44.714;37.756;2022-12-07T05:30:36;9.47;81.01
75380;HTU21D;65641;44.714;37.756;2022-12-07T05:31:39;9.48;81.07
75380;HTU21D;65641;44.714;37.756;2022-12-07T05:32:42;9.49;81.01
75380;HTU21D;65641;44.714;37.756;2022-12-07T05:33:46;9.51;80.88
75380;HTU21D;65641;44.714;37.756;2022-12-07T05:34:49;9.51;80.96
75380;HTU21D;65641;44.714;37.756;2022-12-07T05:35:52;9.53;80.90
75380;HTU21D;65641;44.714;37.756;2022-12-07T05:36:55;9.54;80.85
75380;HTU21D;65641;44.714;37.756;2022-12-07T05:37:58;9.57;80.92
75380;HTU21D;65641;44.714;37.756;2022-12-07T05:39:00;9.59;80.84
75380;HTU21D;65641;44.714;37.756;2022-12-07T05:40:06;9.60;80.90
75380;HTU21D;65641;44.714;37.756;2022-12-07T05:41:13;9.62;80.86
75380;HTU21D;65641;44.714;37.756;2022-12-07T05:42:36;9.62;80.81
75380;HTU21D;65641;44.714;37.756;2022-12-07T05:43:39;9.64;80.80
75380;HTU21D;65641;44.714;37.756;2022-12-07T05:44:44;9.66;80.76
75380;HTU21D;65641;44.714;37.756;2022-12-07T05:45:47;9.67;80.78
75380;HTU21D;65641;44.714;37.756;2022-12-07T05:46:50;9.68;80.72
75380;HTU21D;65641;44.714;37.756;2022-12-07T05:47:53;9.70;80.72
75380;HTU21D;65641;44.714;37.756;2022-12-07T05:48:56;9.74;80.69
75380;HTU21D;65641;44.714;37.756;2022-12-07T05:49:59;9.75;80.62
75380;HTU21D;65641;44.714;37.756;2022-12-07T05:51:02;9.77;80.65
75380;HTU21D;65641;44.714;37.756;2022-12-07T05:52:06;9.78;80.59
75380;HTU21D;65641;44.714;37.756;2022-12-07T05:53:09;9.81;80.56
75380;HTU21D;65641;44.714;37.756;2022-12-07T05:54:12;9.82;80.56
75380;HTU21D;65641;44.714;37.756;2022-12-07T05:55:15;9.85;80.51
75380;HTU21D;65641;44.714;37.756;2022-12-07T05:56:18;9.89;80.40
75380;HTU21D;65641;44.714;37.756;2022-12-07T05:57:21;9.92;80.32
75380;HTU21D;65641;44.714;37.756;2022-12-07T05:58:24;9.95;80.30
75380;HTU21D;65641;44.714;37.756;2022-12-07T05:59:45;9.98;80.24
75380;HTU21D;65641;44.714;37.756;2022-12-07T06:00:48;10.01;80.11
75380;HTU21D;65641;44.714;37.756;2022-12-07T06:01:58;10.04;80.12
75380;HTU21D;65641;44.714;37.756;2022-12-07T06:03:01;10.06;80.01
75380;HTU21D;65641;44.714;37.756;2022-12-07T06:04:04;10.08;79.98
75380;HTU21D;65641;44.714;37.756;2022-12-07T06:05:07;10.10;80.01
75380;HTU21D;65641;44.714;37.756;2022-12-07T06:06:11;10.13;79.97
75380;HTU21D;65641;44.714;37.756;2022-12-07T06:07:15;10.15;79.91
75380;HTU21D;65641;44.714;37.756;2022-12-07T06:08:18;10.18;79.96
75380;HTU21D;65641;44.714;37.756;2022-12-07T06:09:22;10.19;79.95
75380;HTU21D;65641;44.714;37.756;2022-12-07T06:10:25;10.21;79.84
75380;HTU21D;65641;44.714;37.756;2022-12-07T06:11:28;10.24;79.82
75380;HTU21D;65641;44.714;37.756;2022-12-07T06:12:50;10.27;79.80
75380;HTU21D;65641;44.714;37.756;2022-12-07T06:13:53;10.29;79.75
75380;HTU21D;65641;44.714;37.756;2022-12-07T06:14:57;10.33;79.63
75380;HTU21D;65641;44.714;37.756;2022-12-07T06:15:59;10.36;79.62
75380;HTU21D;65641;44.714;37.756;2022-12-07T06:17:02;10.38;79.58
75380;HTU21D;65641;44.714;37.756;2022-12-07T06:18:06;10.41;79.53
75380;HTU21D;65641;44.714;37.756;2022-12-07T06:19:09;10.43;79.50
75380;HTU21D;65641;44.714;37.756;2022-12-07T06:20:12;10.45;79.40
75380;HTU21D;65641;44.714;37.756;2022-12-07T06:21:15;10.48;79.46
75380;HTU21D;65641;44.714;37.756;2022-12-07T06:22:18;10.50;79.45
75380;HTU21D;65641;44.714;37.756;2022-12-07T06:23:21;10.51;79.43
75380;HTU21D;65641;44.714;37.756;2022-12-07T06:24:25;10.52;79.25
75380;HTU21D;65641;44.714;37.756;2022-12-07T06:25:28;10.53;79.51
75380;HTU21D;65641;44.714;37.756;2022-12-07T06:26:31;10.54;79.48
75380;HTU21D;65641;44.714;37.756;2022-12-07T06:27:34;10.56;79.33
75380;HTU21D;65641;44.714;37.756;2022-12-07T06:28:38;10.57;79.45
75380;HTU21D;65641;44.714;37.756;2022-12-07T06:29:41;10.58;79.30
75380;HTU21D;65641;44.714;37.756;2022-12-07T06:30:44;10.60;79.46
75380;HTU21D;65641;44.714;37.756;2022-12-07T06:31:46;10.58;79.45
75380;HTU21D;65641;44.714;37.756;2022-12-07T06:32:49;10.59;79.63
75380;HTU21D;65641;44.714;37.756;2022-12-07T06:34:00;10.60;79.57
75380;HTU21D;65641;44.714;37.756;2022-12-07T06:35:04;10.63;79.59
75380;HTU21D;65641;44.714;37.756;2022-12-07T06:36:08;10.62;79.62
75380;HTU21D;65641;44.714;37.756;2022-12-07T06:37:11;10.63;79.45
75380;HTU21D;65641;44.714;37.756;2022-12-07T06:38:14;10.63;79.45
75380;HTU21D;65641;44.714;37.756;2022-12-07T06:39:18;10.65;79.38
75380;HTU21D;65641;44.714;37.756;2022-12-07T06:40:21;10.66;79.53
75380;HTU21D;65641;44.714;37.756;2022-12-07T06:41:24;10.67;79.49
75380;HTU21D;65641;44.714;37.756;2022-12-07T06:42:27;10.68;79.42
75380;HTU21D;65641;44.714;37.756;2022-12-07T06:43:30;10.71;79.37
75380;HTU21D;65641;44.714;37.756;2022-12-07T06:44:33;10.71;79.22
75380;HTU21D;65641;44.714;37.756;2022-12-07T06:45:36;10.73;79.17
75380;HTU21D;65641;44.714;37.756;2022-12-07T06:46:39;10.75;79.35
75380;HTU21D;65641;44.714;37.756;2022-12-07T06:47:42;10.78;79.30
75380;HTU21D;65641;44.714;37.756;2022-12-07T06:48:47;10.80;79.19
75380;HTU21D;65641;44.714;37.756;2022-12-07T06:49:50;10.82;78.96
75380;HTU21D;65641;44.714;37.756;2022-12-07T06:50:53;10.83;78.93
75380;HTU21D;65641;44.714;37.756;2022-12-07T06:51:56;10.85;79.02
75380;HTU21D;65641;44.714;37.756;2022-12-07T06:52:59;10.88;79.08
75380;HTU21D;65641;44.714;37.756;2022-12-07T06:54:03;10.90;78.89
75380;HTU21D;65641;44.714;37.756;2022-12-07T06:55:06;10.92;78.91
75380;HTU21D;65641;44.714;37.756;2022-12-07T06:56:10;10.94;78.79
75380;HTU21D;65641;44.714;37.756;2022-12-07T06:57:13;10.97;78.84
75380;HTU21D;65641;44.714;37.756;2022-12-07T06:58:16;10.99;78.68
75380;HTU21D;65641;44.714;37.756;2022-12-07T06:59:20;11.01;78.68
75380;HTU21D;65641;44.714;37.756;2022-12-07T07:00:23;11.03;78.64
75380;HTU21D;65641;44.714;37.756;2022-12-07T07:01:26;11.04;78.53
75380;HTU21D;65641;44.714;37.756;2022-12-07T07:02:29;11.07;78.53
75380;HTU21D;65641;44.714;37.756;2022-12-07T07:03:32;11.11;78.56
75380;HTU21D;65641;44.714;37.756;2022-12-07T07:04:35;11.11;78.48
75380;HTU21D;65641;44.714;37.756;2022-12-07T07:05:38;11.11;78.53
75380;HTU21D;65641;44.714;37.756;2022-12-07T07:06:42;11.14;78.47
75380;HTU21D;65641;44.714;37.756;2022-12-07T07:07:45;11.16;78.43
75380;HTU21D;65641;44.714;37.756;2022-12-07T07:09:08;11.18;78.37
75380;HTU21D;65641;44.714;37.756;2022-12-07T07:10:12;11.19;78.34
75380;HTU21D;65641;44.714;37.756;2022-12-07T07:11:15;11.20;78.44
75380;HTU21D;65641;44.714;37.756;2022-12-07T07:12:18;11.20;78.46
75380;HTU21D;65641;44.714;37.756;2022-12-07T07:13:20;11.24;78.37
75380;HTU21D;65641;44.714;37.756;2022-12-07T07:14:23;11.26;78.32
75380;HTU21D;65641;44.714;37.756;2022-12-07T07:15:26;11.26;78.32
75380;HTU21D;65641;44.714;37.756;2022-12-07T07:16:30;11.30;78.40
75380;HTU21D;65641;44.714;37.756;2022-12-07T07:17:34;11.31;78.26
75380;HTU21D;65641;44.714;37.756;2022-12-07T07:18:37;11.33;78.24
75380;HTU21D;65641;44.714;37.756;2022-12-07T07:19:40;11.36;78.21
75380;HTU21D;65641;44.714;37.756;2022-12-07T07:20:43;11.37;78.13
75380;HTU21D;65641;44.714;37.756;2022-12-07T07:21:47;11.41;78.11